sensor_id;sensor_type;location;lat;lon;timestamp;P1;durP1;ratioP1;P2;durP2;ratioP2
43990;SDS011;29654;50.784;20.604;2023-02-20T00:03:19;9.15;;;4.65;;
43990;SDS011;29654;50.784;20.604;2023-02-20T00:08:22;9.07;;;4.78;;
43990;SDS011;29654;50.784;20.604;2023-02-20T00:13:24;7.85;;;4.32;;
43990;SDS011;29654;50.784;20.604;2023-02-20T00:18:28;7.43;;;5.20;;
43990;SDS011;29654;50.784;20.604;2023-02-20T00:23:31;7.65;;;5.10;;
43990;SDS011;29654;50.784;20.604;2023-02-20T00:28:34;8.63;;;5.40;;
43990;SDS011;29654;50.784;20.604;2023-02-20T00:33:39;9.35;;;4.80;;
43990;SDS011;29654;50.784;20.604;2023-02-20T00:38:43;6.70;;;4.57;;
43990;SDS011;29654;50.784;20.604;2023-02-20T00:43:46;10.60;;;4.97;;
43990;SDS011;29654;50.784;20.604;2023-02-20T00:48:50;8.10;;;4.53;;
43990;SDS011;29654;50.784;20.604;2023-02-20T00:54:11;5.25;;;4.13;;
43990;SDS011;29654;50.784;20.604;2023-02-20T00:59:13;8.57;;;3.95;;
43990;SDS011;29654;50.784;20.604;2023-02-20T01:04:17;7.80;;;4.40;;
43990;SDS011;29654;50.784;20.604;2023-02-20T01:09:20;6.03;;;3.72;;
43990;SDS011;29654;50.784;20.604;2023-02-20T01:14:23;8.77;;;3.65;;
43990;SDS011;29654;50.784;20.604;2023-02-20T01:19:27;6.93;;;3.67;;
43990;SDS011;29654;50.784;20.604;2023-02-20T01:24:29;5.55;;;3.50;;
43990;SDS011;29654;50.784;20.604;2023-02-20T01:29:32;4.13;;;3.15;;
43990;SDS011;29654;50.784;20.604;2023-02-20T01:34:36;5.47;;;2.90;;
43990;SDS011;29654;50.784;20.604;2023-02-20T01:39:38;7.30;;;3.13;;
43990;SDS011;29654;50.784;20.604;2023-02-20T01:44:41;4.68;;;2.88;;
43990;SDS011;29654;50.784;20.604;2023-02-20T01:49:46;6.07;;;2.88;;
43990;SDS011;29654;50.784;20.604;2023-02-20T01:54:55;7.63;;;2.67;;
43990;SDS011;29654;50.784;20.604;2023-02-20T02:00:04;6.00;;;2.72;;
43990;SDS011;29654;50.784;20.604;2023-02-20T02:05:17;4.25;;;2.30;;
43990;SDS011;29654;50.784;20.604;2023-02-20T02:10:23;6.00;;;2.75;;
43990;SDS011;29654;50.784;20.604;2023-02-20T02:15:30;4.70;;;2.75;;
43990;SDS011;29654;50.784;20.604;2023-02-20T02:27:10;4.78;;;2.25;;
43990;SDS011;29654;50.784;20.604;2023-02-20T02:39:06;4.75;;;2.38;;
43990;SDS011;29654;50.784;20.604;2023-02-20T02:44:17;3.10;;;2.38;;
43990;SDS011;29654;50.784;20.604;2023-02-20T02:49:25;3.78;;;2.60;;
43990;SDS011;29654;50.784;20.604;2023-02-20T02:54:38;5.20;;;2.42;;
43990;SDS011;29654;50.784;20.604;2023-02-20T02:59:41;4.72;;;2.72;;
43990;SDS011;29654;50.784;20.604;2023-02-20T03:04:44;5.10;;;2.90;;
43990;SDS011;29654;50.784;20.604;2023-02-20T03:09:52;4.03;;;2.80;;
43990;SDS011;29654;50.784;20.604;2023-02-20T03:14:58;5.05;;;3.13;;
43990;SDS011;29654;50.784;20.604;2023-02-20T03:20:23;5.88;;;2.70;;
43990;SDS011;29654;50.784;20.604;2023-02-20T03:25:29;4.10;;;2.70;;
43990;SDS011;29654;50.784;20.604;2023-02-20T03:30:36;4.15;;;2.22;;
43990;SDS011;29654;50.784;20.604;2023-02-20T03:35:44;4.20;;;2.22;;
43990;SDS011;29654;50.784;20.604;2023-02-20T03:41:07;3.00;;;2.17;;
43990;SDS011;29654;50.784;20.604;2023-02-20T03:46:30;4.47;;;2.20;;
43990;SDS011;29654;50.784;20.604;2023-02-20T03:51:36;2.08;;;1.77;;
43990;SDS011;29654;50.784;20.604;2023-02-20T03:56:48;4.38;;;1.75;;
43990;SDS011;29654;50.784;20.604;2023-02-20T04:01:58;3.72;;;2.10;;
43990;SDS011;29654;50.784;20.604;2023-02-20T04:07:07;3.38;;;2.17;;
43990;SDS011;29654;50.784;20.604;2023-02-20T04:12:19;3.75;;;2.10;;
43990;SDS011;29654;50.784;20.604;2023-02-20T04:17:26;3.25;;;1.92;;
43990;SDS011;29654;50.784;20.604;2023-02-20T04:22:34;4.57;;;2.10;;
43990;SDS011;29654;50.784;20.604;2023-02-20T04:27:43;3.58;;;1.80;;
43990;SDS011;29654;50.784;20.604;2023-02-20T04:32:47;3.17;;;1.80;;
43990;SDS011;29654;50.784;20.604;2023-02-20T04:37:50;3.45;;;1.95;;
43990;SDS011;29654;50.784;20.604;2023-02-20T04:42:54;2.53;;;1.88;;
43990;SDS011;29654;50.784;20.604;2023-02-20T04:47:57;3.40;;;2.05;;
43990;SDS011;29654;50.784;20.604;2023-02-20T04:53:00;3.42;;;1.80;;
43990;SDS011;29654;50.784;20.604;2023-02-20T04:58:05;3.22;;;1.95;;
43990;SDS011;29654;50.784;20.604;2023-02-20T05:03:21;3.63;;;1.83;;
43990;SDS011;29654;50.784;20.604;2023-02-20T05:08:24;4.07;;;1.92;;
43990;SDS011;29654;50.784;20.604;2023-02-20T05:13:28;3.22;;;1.60;;
43990;SDS011;29654;50.784;20.604;2023-02-20T05:18:31;3.35;;;1.63;;
43990;SDS011;29654;50.784;20.604;2023-02-20T05:23:34;3.63;;;1.80;;
43990;SDS011;29654;50.784;20.604;2023-02-20T05:28:38;3.28;;;1.90;;
43990;SDS011;29654;50.784;20.604;2023-02-20T05:33:41;4.05;;;2.03;;
43990;SDS011;29654;50.784;20.604;2023-02-20T05:38:43;3.25;;;1.95;;
43990;SDS011;29654;50.784;20.604;2023-02-20T05:43:49;5.60;;;2.20;;
43990;SDS011;29654;50.784;20.604;2023-02-20T05:48:54;5.20;;;2.17;;
43990;SDS011;29654;50.784;20.604;2023-02-20T05:53:56;3.92;;;2.30;;
43990;SDS011;29654;50.784;20.604;2023-02-20T05:59:00;4.55;;;2.20;;
43990;SDS011;29654;50.784;20.604;2023-02-20T06:04:03;4.13;;;2.08;;
43990;SDS011;29654;50.784;20.604;2023-02-20T06:09:06;3.38;;;2.20;;
43990;SDS011;29654;50.784;20.604;2023-02-20T06:14:14;4.93;;;2.45;;
43990;SDS011;29654;50.784;20.604;2023-02-20T06:19:18;4.28;;;2.35;;
43990;SDS011;29654;50.784;20.604;2023-02-20T06:24:22;3.72;;;2.63;;
43990;SDS011;29654;50.784;20.604;2023-02-20T06:29:26;4.45;;;2.67;;
43990;SDS011;29654;50.784;20.604;2023-02-20T06:34:29;6.20;;;2.47;;
43990;SDS011;29654;50.784;20.604;2023-02-20T06:39:32;4.05;;;2.20;;
43990;SDS011;29654;50.784;20.604;2023-02-20T06:44:36;5.22;;;2.53;;
43990;SDS011;29654;50.784;20.604;2023-02-20T06:49:39;6.07;;;2.78;;
43990;SDS011;29654;50.784;20.604;2023-02-20T06:54:42;9.30;;;3.17;;
43990;SDS011;29654;50.784;20.604;2023-02-20T06:59:46;5.43;;;2.63;;
43990;SDS011;29654;50.784;20.604;2023-02-20T07:04:49;5.65;;;2.90;;
43990;SDS011;29654;50.784;20.604;2023-02-20T07:09:51;4.55;;;2.85;;
43990;SDS011;29654;50.784;20.604;2023-02-20T07:14:55;5.13;;;2.47;;
43990;SDS011;29654;50.784;20.604;2023-02-20T07:19:58;3.25;;;2.38;;
43990;SDS011;29654;50.784;20.604;2023-02-20T07:25:01;5.40;;;2.30;;
43990;SDS011;29654;50.784;20.604;2023-02-20T07:30:05;4.65;;;2.35;;
43990;SDS011;29654;50.784;20.604;2023-02-20T07:35:09;5.38;;;2.60;;
43990;SDS011;29654;50.784;20.604;2023-02-20T07:40:12;4.28;;;2.47;;
43990;SDS011;29654;50.784;20.604;2023-02-20T07:45:17;4.28;;;2.58;;
43990;SDS011;29654;50.784;20.604;2023-02-20T07:50:19;4.32;;;2.40;;
43990;SDS011;29654;50.784;20.604;2023-02-20T07:55:22;6.80;;;2.83;;
43990;SDS011;29654;50.784;20.604;2023-02-20T08:00:26;6.60;;;3.15;;
43990;SDS011;29654;50.784;20.604;2023-02-20T08:05:28;5.78;;;3.30;;
43990;SDS011;29654;50.784;20.604;2023-02-20T08:10:31;5.03;;;3.55;;
43990;SDS011;29654;50.784;20.604;2023-02-20T08:15:35;5.60;;;3.28;;
43990;SDS011;29654;50.784;20.604;2023-02-20T08:20:37;4.32;;;3.25;;
43990;SDS011;29654;50.784;20.604;2023-02-20T08:25:40;6.85;;;3.80;;
43990;SDS011;29654;50.784;20.604;2023-02-20T08:30:44;5.63;;;3.47;;
43990;SDS011;29654;50.784;20.604;2023-02-20T08:35:47;4.55;;;2.97;;
43990;SDS011;29654;50.784;20.604;2023-02-20T08:40:53;4.28;;;2.67;;
43990;SDS011;29654;50.784;20.604;2023-02-20T08:45:57;4.63;;;2.97;;
43990;SDS011;29654;50.784;20.604;2023-02-20T08:50:59;4.55;;;2.95;;
43990;SDS011;29654;50.784;20.604;2023-02-20T08:56:02;5.05;;;3.00;;
43990;SDS011;29654;50.784;20.604;2023-02-20T09:01:07;5.38;;;3.05;;
43990;SDS011;29654;50.784;20.604;2023-02-20T09:06:09;4.55;;;2.97;;
43990;SDS011;29654;50.784;20.604;2023-02-20T09:11:13;6.63;;;3.15;;
43990;SDS011;29654;50.784;20.604;2023-02-20T09:16:17;5.63;;;3.33;;
43990;SDS011;29654;50.784;20.604;2023-02-20T09:21:22;5.88;;;3.25;;
43990;SDS011;29654;50.784;20.604;2023-02-20T09:26:27;4.95;;;3.50;;
43990;SDS011;29654;50.784;20.604;2023-02-20T09:31:31;5.60;;;3.42;;
43990;SDS011;29654;50.784;20.604;2023-02-20T09:36:34;5.85;;;2.83;;
43990;SDS011;29654;50.784;20.604;2023-02-20T09:41:44;5.10;;;3.42;;
43990;SDS011;29654;50.784;20.604;2023-02-20T09:47:02;4.25;;;2.90;;
43990;SDS011;29654;50.784;20.604;2023-02-20T09:52:15;6.57;;;3.45;;
43990;SDS011;29654;50.784;20.604;2023-02-20T09:57:20;6.13;;;3.22;;
43990;SDS011;29654;50.784;20.604;2023-02-20T10:02:29;5.55;;;3.60;;
43990;SDS011;29654;50.784;20.604;2023-02-20T10:07:35;6.65;;;3.65;;
43990;SDS011;29654;50.784;20.604;2023-02-20T10:12:40;6.40;;;3.22;;
43990;SDS011;29654;50.784;20.604;2023-02-20T10:17:57;4.90;;;3.03;;
43990;SDS011;29654;50.784;20.604;2023-02-20T10:23:13;5.03;;;3.30;;
43990;SDS011;29654;50.784;20.604;2023-02-20T10:28:21;4.80;;;3.10;;
43990;SDS011;29654;50.784;20.604;2023-02-20T10:33:27;7.22;;;3.47;;
43990;SDS011;29654;50.784;20.604;2023-02-20T10:38:38;4.80;;;3.47;;
43990;SDS011;29654;50.784;20.604;2023-02-20T10:43:52;6.65;;;3.88;;
43990;SDS011;29654;50.784;20.604;2023-02-20T10:49:02;6.13;;;3.92;;
43990;SDS011;29654;50.784;20.604;2023-02-20T10:54:11;5.78;;;3.67;;
43990;SDS011;29654;50.784;20.604;2023-02-20T10:59:20;6.68;;;3.92;;
43990;SDS011;29654;50.784;20.604;2023-02-20T11:04:31;7.30;;;3.90;;
43990;SDS011;29654;50.784;20.604;2023-02-20T11:09:38;5.63;;;4.15;;
43990;SDS011;29654;50.784;20.604;2023-02-20T11:14:42;5.57;;;4.35;;
43990;SDS011;29654;50.784;20.604;2023-02-20T11:19:49;6.68;;;4.32;;
43990;SDS011;29654;50.784;20.604;2023-02-20T11:24:54;5.32;;;4.25;;
43990;SDS011;29654;50.784;20.604;2023-02-20T11:30:21;6.22;;;4.47;;
43990;SDS011;29654;50.784;20.604;2023-02-20T11:35:32;6.53;;;4.75;;
43990;SDS011;29654;50.784;20.604;2023-02-20T11:40:36;5.63;;;4.78;;
43990;SDS011;29654;50.784;20.604;2023-02-20T11:45:38;5.90;;;4.75;;
43990;SDS011;29654;50.784;20.604;2023-02-20T11:50:43;7.80;;;5.13;;
43990;SDS011;29654;50.784;20.604;2023-02-20T11:55:49;6.50;;;5.32;;
43990;SDS011;29654;50.784;20.604;2023-02-20T12:01:11;7.72;;;5.30;;
43990;SDS011;29654;50.784;20.604;2023-02-20T12:06:37;7.07;;;6.13;;
43990;SDS011;29654;50.784;20.604;2023-02-20T12:11:43;6.70;;;5.72;;
43990;SDS011;29654;50.784;20.604;2023-02-20T12:16:51;7.45;;;6.53;;
43990;SDS011;29654;50.784;20.604;2023-02-20T12:22:08;6.97;;;6.00;;
43990;SDS011;29654;50.784;20.604;2023-02-20T12:27:26;9.00;;;5.93;;
43990;SDS011;29654;50.784;20.604;2023-02-20T12:33:03;8.00;;;5.85;;
43990;SDS011;29654;50.784;20.604;2023-02-20T12:38:27;6.47;;;5.47;;
43990;SDS011;29654;50.784;20.604;2023-02-20T12:43:42;6.57;;;5.15;;
43990;SDS011;29654;50.784;20.604;2023-02-20T12:48:58;5.88;;;5.22;;
43990;SDS011;29654;50.784;20.604;2023-02-20T12:54:22;6.28;;;5.13;;
43990;SDS011;29654;50.784;20.604;2023-02-20T12:59:34;6.40;;;4.65;;
43990;SDS011;29654;50.784;20.604;2023-02-20T13:04:46;6.07;;;5.47;;
43990;SDS011;29654;50.784;20.604;2023-02-20T13:10:00;5.97;;;4.18;;
43990;SDS011;29654;50.784;20.604;2023-02-20T13:15:15;5.97;;;4.40;;
43990;SDS011;29654;50.784;20.604;2023-02-20T13:20:35;5.38;;;4.13;;
43990;SDS011;29654;50.784;20.604;2023-02-20T13:25:43;4.75;;;3.70;;
43990;SDS011;29654;50.784;20.604;2023-02-20T13:30:55;5.68;;;4.55;;
43990;SDS011;29654;50.784;20.604;2023-02-20T13:36:38;4.40;;;3.70;;
43990;SDS011;29654;50.784;20.604;2023-02-20T13:42:00;5.15;;;3.70;;
43990;SDS011;29654;50.784;20.604;2023-02-20T13:47:19;4.47;;;3.65;;
43990;SDS011;29654;50.784;20.604;2023-02-20T13:52:37;4.30;;;3.90;;
43990;SDS011;29654;50.784;20.604;2023-02-20T13:57:44;5.47;;;4.20;;
43990;SDS011;29654;50.784;20.604;2023-02-20T14:02:48;5.53;;;3.97;;
43990;SDS011;29654;50.784;20.604;2023-02-20T14:07:51;4.75;;;4.25;;
43990;SDS011;29654;50.784;20.604;2023-02-20T14:12:56;5.00;;;4.45;;
43990;SDS011;29654;50.784;20.604;2023-02-20T14:18:02;6.80;;;5.32;;
43990;SDS011;29654;50.784;20.604;2023-02-20T14:23:09;5.95;;;4.85;;
43990;SDS011;29654;50.784;20.604;2023-02-20T14:28:29;5.43;;;4.80;;
43990;SDS011;29654;50.784;20.604;2023-02-20T14:33:34;5.95;;;5.07;;
43990;SDS011;29654;50.784;20.604;2023-02-20T14:38:42;5.35;;;4.78;;
43990;SDS011;29654;50.784;20.604;2023-02-20T14:44:12;6.13;;;5.13;;
43990;SDS011;29654;50.784;20.604;2023-02-20T14:49:22;7.90;;;5.68;;
43990;SDS011;29654;50.784;20.604;2023-02-20T14:54:28;7.45;;;5.40;;
43990;SDS011;29654;50.784;20.604;2023-02-20T14:59:32;5.85;;;5.25;;
43990;SDS011;29654;50.784;20.604;2023-02-20T15:04:45;6.75;;;6.05;;
43990;SDS011;29654;50.784;20.604;2023-02-20T15:09:50;9.70;;;6.25;;
43990;SDS011;29654;50.784;20.604;2023-02-20T15:14:58;7.28;;;5.65;;
43990;SDS011;29654;50.784;20.604;2023-02-20T15:20:14;7.15;;;5.75;;
43990;SDS011;29654;50.784;20.604;2023-02-20T15:25:25;5.47;;;4.97;;
43990;SDS011;29654;50.784;20.604;2023-02-20T15:30:31;6.88;;;5.28;;
43990;SDS011;29654;50.784;20.604;2023-02-20T15:35:34;7.13;;;5.82;;
43990;SDS011;29654;50.784;20.604;2023-02-20T15:40:36;7.78;;;6.18;;
43990;SDS011;29654;50.784;20.604;2023-02-20T15:45:42;6.13;;;5.53;;
43990;SDS011;29654;50.784;20.604;2023-02-20T15:50:44;7.93;;;5.63;;
43990;SDS011;29654;50.784;20.604;2023-02-20T15:55:48;6.07;;;5.05;;
43990;SDS011;29654;50.784;20.604;2023-02-20T16:00:54;6.95;;;5.28;;
43990;SDS011;29654;50.784;20.604;2023-02-20T16:05:57;5.78;;;5.18;;
43990;SDS011;29654;50.784;20.604;2023-02-20T16:11:00;7.10;;;6.07;;
43990;SDS011;29654;50.784;20.604;2023-02-20T16:16:05;6.50;;;5.60;;
43990;SDS011;29654;50.784;20.604;2023-02-20T16:21:20;6.18;;;5.28;;
43990;SDS011;29654;50.784;20.604;2023-02-20T16:26:24;5.97;;;5.30;;
43990;SDS011;29654;50.784;20.604;2023-02-20T16:37:13;7.10;;;5.55;;
43990;SDS011;29654;50.784;20.604;2023-02-20T16:42:20;7.88;;;5.72;;
43990;SDS011;29654;50.784;20.604;2023-02-20T16:47:30;5.53;;;4.45;;
43990;SDS011;29654;50.784;20.604;2023-02-20T16:52:34;6.75;;;5.38;;
43990;SDS011;29654;50.784;20.604;2023-02-20T16:57:38;5.93;;;4.85;;
43990;SDS011;29654;50.784;20.604;2023-02-20T17:02:42;5.80;;;4.88;;
43990;SDS011;29654;50.784;20.604;2023-02-20T17:07:44;4.93;;;4.43;;
43990;SDS011;29654;50.784;20.604;2023-02-20T17:12:47;6.95;;;5.32;;
43990;SDS011;29654;50.784;20.604;2023-02-20T17:17:51;5.43;;;4.88;;
43990;SDS011;29654;50.784;20.604;2023-02-20T17:22:54;6.43;;;5.35;;
43990;SDS011;29654;50.784;20.604;2023-02-20T17:27:57;4.95;;;4.45;;
43990;SDS011;29654;50.784;20.604;2023-02-20T17:33:01;6.07;;;4.20;;
43990;SDS011;29654;50.784;20.604;2023-02-20T17:38:03;5.47;;;3.97;;
43990;SDS011;29654;50.784;20.604;2023-02-20T17:43:06;3.97;;;3.55;;
43990;SDS011;29654;50.784;20.604;2023-02-20T17:48:10;4.13;;;3.20;;
43990;SDS011;29654;50.784;20.604;2023-02-20T17:53:13;4.25;;;3.20;;
43990;SDS011;29654;50.784;20.604;2023-02-20T17:58:16;4.22;;;3.45;;
43990;SDS011;29654;50.784;20.604;2023-02-20T18:03:20;2.97;;;2.63;;
43990;SDS011;29654;50.784;20.604;2023-02-20T18:08:22;3.40;;;3.00;;
43990;SDS011;29654;50.784;20.604;2023-02-20T18:13:25;3.40;;;3.10;;
43990;SDS011;29654;50.784;20.604;2023-02-20T18:18:29;3.50;;;3.20;;
43990;SDS011;29654;50.784;20.604;2023-02-20T18:23:31;4.13;;;3.05;;
43990;SDS011;29654;50.784;20.604;2023-02-20T18:28:34;2.88;;;2.58;;
43990;SDS011;29654;50.784;20.604;2023-02-20T18:33:38;3.42;;;3.13;;
43990;SDS011;29654;50.784;20.604;2023-02-20T18:38:41;5.85;;;2.50;;
43990;SDS011;29654;50.784;20.604;2023-02-20T18:43:44;3.78;;;2.95;;
43990;SDS011;29654;50.784;20.604;2023-02-20T18:48:48;2.88;;;2.53;;
43990;SDS011;29654;50.784;20.604;2023-02-20T18:53:51;3.85;;;3.10;;
43990;SDS011;29654;50.784;20.604;2023-02-20T18:58:53;4.22;;;2.83;;
43990;SDS011;29654;50.784;20.604;2023-02-20T19:03:57;3.28;;;2.97;;
43990;SDS011;29654;50.784;20.604;2023-02-20T19:09:02;3.30;;;2.63;;
43990;SDS011;29654;50.784;20.604;2023-02-20T19:14:05;3.58;;;3.10;;
43990;SDS011;29654;50.784;20.604;2023-02-20T19:19:09;4.22;;;2.70;;
43990;SDS011;29654;50.784;20.604;2023-02-20T19:24:12;2.95;;;2.33;;
43990;SDS011;29654;50.784;20.604;2023-02-20T19:29:15;3.75;;;3.13;;
43990;SDS011;29654;50.784;20.604;2023-02-20T19:34:19;3.35;;;2.78;;
43990;SDS011;29654;50.784;20.604;2023-02-20T19:39:22;3.30;;;2.53;;
43990;SDS011;29654;50.784;20.604;2023-02-20T19:44:24;2.42;;;2.22;;
43990;SDS011;29654;50.784;20.604;2023-02-20T19:49:29;2.97;;;2.38;;
43990;SDS011;29654;50.784;20.604;2023-02-20T19:54:33;2.50;;;2.30;;
43990;SDS011;29654;50.784;20.604;2023-02-20T19:59:36;4.15;;;2.50;;
43990;SDS011;29654;50.784;20.604;2023-02-20T20:04:41;2.53;;;1.95;;
43990;SDS011;29654;50.784;20.604;2023-02-20T20:09:45;3.72;;;2.42;;
43990;SDS011;29654;50.784;20.604;2023-02-20T20:14:48;3.90;;;2.55;;
43990;SDS011;29654;50.784;20.604;2023-02-20T20:19:52;3.50;;;2.83;;
43990;SDS011;29654;50.784;20.604;2023-02-20T20:24:54;3.85;;;2.70;;
43990;SDS011;29654;50.784;20.604;2023-02-20T20:29:57;4.00;;;2.65;;
43990;SDS011;29654;50.784;20.604;2023-02-20T20:35:01;3.83;;;3.05;;
43990;SDS011;29654;50.784;20.604;2023-02-20T20:40:05;4.28;;;3.10;;
43990;SDS011;29654;50.784;20.604;2023-02-20T20:45:09;3.35;;;2.67;;
43990;SDS011;29654;50.784;20.604;2023-02-20T20:50:17;2.75;;;2.40;;
43990;SDS011;29654;50.784;20.604;2023-02-20T20:55:22;3.20;;;2.40;;
43990;SDS011;29654;50.784;20.604;2023-02-20T21:00:26;2.65;;;2.28;;
43990;SDS011;29654;50.784;20.604;2023-02-20T21:05:32;3.80;;;2.53;;
43990;SDS011;29654;50.784;20.604;2023-02-20T21:10:34;2.60;;;2.20;;
43990;SDS011;29654;50.784;20.604;2023-02-20T21:15:37;2.70;;;2.05;;
43990;SDS011;29654;50.784;20.604;2023-02-20T21:20:41;2.55;;;1.95;;
43990;SDS011;29654;50.784;20.604;2023-02-20T21:25:44;3.50;;;2.05;;
43990;SDS011;29654;50.784;20.604;2023-02-20T21:30:47;2.17;;;1.70;;
43990;SDS011;29654;50.784;20.604;2023-02-20T21:35:51;3.13;;;2.10;;
43990;SDS011;29654;50.784;20.604;2023-02-20T21:40:53;2.67;;;1.90;;
43990;SDS011;29654;50.784;20.604;2023-02-20T21:45:56;3.40;;;2.00;;
43990;SDS011;29654;50.784;20.604;2023-02-20T21:51:00;2.30;;;1.80;;
43990;SDS011;29654;50.784;20.604;2023-02-20T21:56:02;2.33;;;1.88;;
43990;SDS011;29654;50.784;20.604;2023-02-20T22:01:05;4.10;;;1.85;;
43990;SDS011;29654;50.784;20.604;2023-02-20T22:06:08;2.03;;;1.70;;
43990;SDS011;29654;50.784;20.604;2023-02-20T22:11:09;3.20;;;1.67;;
43990;SDS011;29654;50.784;20.604;2023-02-20T22:16:29;2.47;;;1.73;;
43990;SDS011;29654;50.784;20.604;2023-02-20T22:21:50;4.18;;;1.88;;
43990;SDS011;29654;50.784;20.604;2023-02-20T22:27:10;2.20;;;2.00;;
43990;SDS011;29654;50.784;20.604;2023-02-20T22:32:31;3.92;;;1.73;;
43990;SDS011;29654;50.784;20.604;2023-02-20T22:37:52;3.63;;;1.63;;
43990;SDS011;29654;50.784;20.604;2023-02-20T22:43:12;1.63;;;1.52;;
43990;SDS011;29654;50.784;20.604;2023-02-20T22:48:32;1.92;;;1.80;;
43990;SDS011;29654;50.784;20.604;2023-02-20T22:53:53;2.13;;;1.90;;
43990;SDS011;29654;50.784;20.604;2023-02-20T22:59:13;2.90;;;1.83;;
43990;SDS011;29654;50.784;20.604;2023-02-20T23:04:33;1.88;;;1.73;;
43990;SDS011;29654;50.784;20.604;2023-02-20T23:09:54;2.55;;;1.75;;
43990;SDS011;29654;50.784;20.604;2023-02-20T23:15:14;2.53;;;2.33;;
43990;SDS011;29654;50.784;20.604;2023-02-20T23:20:34;2.10;;;1.90;;
43990;SDS011;29654;50.784;20.604;2023-02-20T23:25:55;3.30;;;1.83;;
43990;SDS011;29654;50.784;20.604;2023-02-20T23:31:15;2.47;;;1.63;;
43990;SDS011;29654;50.784;20.604;2023-02-20T23:36:36;2.55;;;2.00;;
43990;SDS011;29654;50.784;20.604;2023-02-20T23:41:57;2.65;;;2.10;;
43990;SDS011;29654;50.784;20.604;2023-02-20T23:47:17;2.25;;;1.63;;
43990;SDS011;29654;50.784;20.604;2023-02-20T23:52:37;1.88;;;1.60;;
43990;SDS011;29654;50.784;20.604;2023-02-20T23:57:58;2.10;;;1.90;;
